sensor_id;sensor_type;location;lat;lon;timestamp;temperature;humidity
14210;DHT22;7188;56.070;12.698;2023-03-11T00:02:17;0.00;1.00
14210;DHT22;7188;56.070;12.698;2023-03-11T00:04:43;0.00;1.00
14210;DHT22;7188;56.070;12.698;2023-03-11T00:07:10;0.00;1.00
14210;DHT22;7188;56.070;12.698;2023-03-11T00:09:36;0.00;1.00
14210;DHT22;7188;56.070;12.698;2023-03-11T00:12:03;0.00;1.00
14210;DHT22;7188;56.070;12.698;2023-03-11T00:14:28;-0.10;1.00
14210;DHT22;7188;56.070;12.698;2023-03-11T00:16:54;-0.10;1.00
14210;DHT22;7188;56.070;12.698;2023-03-11T00:19:20;-0.10;1.00
14210;DHT22;7188;56.070;12.698;2023-03-11T00:21:46;-0.10;1.00
14210;DHT22;7188;56.070;12.698;2023-03-11T00:24:11;-0.10;1.00
14210;DHT22;7188;56.070;12.698;2023-03-11T00:26:37;-0.20;1.00
14210;DHT22;7188;56.070;12.698;2023-03-11T00:29:03;-0.20;1.00
14210;DHT22;7188;56.070;12.698;2023-03-11T00:31:28;-0.20;1.00
14210;DHT22;7188;56.070;12.698;2023-03-11T00:33:54;-0.20;1.00
14210;DHT22;7188;56.070;12.698;2023-03-11T00:36:28;-0.30;1.00
14210;DHT22;7188;56.070;12.698;2023-03-11T00:38:56;-0.30;1.00
14210;DHT22;7188;56.070;12.698;2023-03-11T00:41:22;-0.30;1.00
14210;DHT22;7188;56.070;12.698;2023-03-11T00:43:47;-0.30;1.00
14210;DHT22;7188;56.070;12.698;2023-03-11T00:46:13;-0.40;17.20
14210;DHT22;7188;56.070;12.698;2023-03-11T00:48:39;-0.40;70.00
14210;DHT22;7188;56.070;12.698;2023-03-11T00:51:06;-0.40;41.40
14210;DHT22;7188;56.070;12.698;2023-03-11T00:53:34;-0.40;37.10
14210;DHT22;7188;56.070;12.698;2023-03-11T00:56:08;-0.40;59.60
14210;DHT22;7188;56.070;12.698;2023-03-11T00:58:35;-0.50;99.90
14210;DHT22;7188;56.070;12.698;2023-03-11T01:01:08;-0.50;99.90
14210;DHT22;7188;56.070;12.698;2023-03-11T01:03:36;-0.50;99.90
14210;DHT22;7188;56.070;12.698;2023-03-11T01:06:02;-0.50;99.90
14210;DHT22;7188;56.070;12.698;2023-03-11T01:08:28;-0.50;99.90
14210;DHT22;7188;56.070;12.698;2023-03-11T01:10:54;-0.50;99.90
14210;DHT22;7188;56.070;12.698;2023-03-11T01:13:20;-0.50;99.90
14210;DHT22;7188;56.070;12.698;2023-03-11T01:15:46;-0.50;99.90
14210;DHT22;7188;56.070;12.698;2023-03-11T01:18:12;-0.50;99.90
14210;DHT22;7188;56.070;12.698;2023-03-11T01:20:39;-0.50;99.90
14210;DHT22;7188;56.070;12.698;2023-03-11T01:23:06;-0.50;99.90
14210;DHT22;7188;56.070;12.698;2023-03-11T01:25:32;-0.60;99.90
14210;DHT22;7188;56.070;12.698;2023-03-11T01:27:58;-0.60;99.90
14210;DHT22;7188;56.070;12.698;2023-03-11T01:30:25;-0.60;99.90
14210;DHT22;7188;56.070;12.698;2023-03-11T01:33:01;-0.60;99.90
14210;DHT22;7188;56.070;12.698;2023-03-11T01:35:28;-0.60;99.90
14210;DHT22;7188;56.070;12.698;2023-03-11T01:37:55;-0.50;99.90
14210;DHT22;7188;56.070;12.698;2023-03-11T01:43:02;-0.50;99.90
14210;DHT22;7188;56.070;12.698;2023-03-11T01:47:53;-0.50;99.90
14210;DHT22;7188;56.070;12.698;2023-03-11T01:50:19;-0.50;99.90
14210;DHT22;7188;56.070;12.698;2023-03-11T01:52:46;-0.50;99.90
14210;DHT22;7188;56.070;12.698;2023-03-11T01:55:13;-0.50;99.90
14210;DHT22;7188;56.070;12.698;2023-03-11T01:57:46;-0.50;99.90
14210;DHT22;7188;56.070;12.698;2023-03-11T02:00:13;-0.50;99.90
14210;DHT22;7188;56.070;12.698;2023-03-11T02:02:49;-0.50;99.90
14210;DHT22;7188;56.070;12.698;2023-03-11T02:05:16;-0.50;1.00
14210;DHT22;7188;56.070;12.698;2023-03-11T02:08:20;-0.50;1.00
14210;DHT22;7188;56.070;12.698;2023-03-11T02:10:46;-0.50;1.00
14210;DHT22;7188;56.070;12.698;2023-03-11T02:13:12;-0.50;99.90
14210;DHT22;7188;56.070;12.698;2023-03-11T02:15:38;-0.50;1.00
14210;DHT22;7188;56.070;12.698;2023-03-11T02:18:05;-0.50;1.00
14210;DHT22;7188;56.070;12.698;2023-03-11T02:20:39;-0.50;1.00
14210;DHT22;7188;56.070;12.698;2023-03-11T02:23:07;-0.50;1.00
14210;DHT22;7188;56.070;12.698;2023-03-11T02:25:53;-0.60;1.00
14210;DHT22;7188;56.070;12.698;2023-03-11T02:28:21;-0.60;1.00
14210;DHT22;7188;56.070;12.698;2023-03-11T02:30:47;-0.60;1.00
14210;DHT22;7188;56.070;12.698;2023-03-11T02:33:14;-0.60;1.00
14210;DHT22;7188;56.070;12.698;2023-03-11T02:35:56;-0.60;1.00
14210;DHT22;7188;56.070;12.698;2023-03-11T02:38:22;-0.60;1.00
14210;DHT22;7188;56.070;12.698;2023-03-11T02:40:52;-0.60;99.90
14210;DHT22;7188;56.070;12.698;2023-03-11T02:43:30;-0.50;99.90
14210;DHT22;7188;56.070;12.698;2023-03-11T02:45:58;-0.50;99.90
14210;DHT22;7188;56.070;12.698;2023-03-11T02:48:24;-0.50;99.90
14210;DHT22;7188;56.070;12.698;2023-03-11T02:50:52;-0.50;99.90
14210;DHT22;7188;56.070;12.698;2023-03-11T02:53:17;-0.50;99.90
14210;DHT22;7188;56.070;12.698;2023-03-11T02:55:43;-0.50;99.90
14210;DHT22;7188;56.070;12.698;2023-03-11T02:58:09;-0.50;99.90
14210;DHT22;7188;56.070;12.698;2023-03-11T03:00:34;-0.50;99.90
14210;DHT22;7188;56.070;12.698;2023-03-11T03:03:00;-0.50;99.90
14210;DHT22;7188;56.070;12.698;2023-03-11T03:05:26;-0.50;99.90
14210;DHT22;7188;56.070;12.698;2023-03-11T03:07:51;-0.60;99.90
14210;DHT22;7188;56.070;12.698;2023-03-11T03:10:18;-0.60;99.90
14210;DHT22;7188;56.070;12.698;2023-03-11T03:12:44;-0.60;99.90
14210;DHT22;7188;56.070;12.698;2023-03-11T03:15:11;-0.60;99.90
14210;DHT22;7188;56.070;12.698;2023-03-11T03:17:58;-0.60;1.00
14210;DHT22;7188;56.070;12.698;2023-03-11T03:20:24;-0.70;1.00
14210;DHT22;7188;56.070;12.698;2023-03-11T03:22:53;-0.60;1.00
14210;DHT22;7188;56.070;12.698;2023-03-11T03:25:18;-0.60;1.00
14210;DHT22;7188;56.070;12.698;2023-03-11T03:27:44;-0.60;1.00
14210;DHT22;7188;56.070;12.698;2023-03-11T03:30:10;-0.60;1.00
14210;DHT22;7188;56.070;12.698;2023-03-11T03:32:36;-0.50;1.00
14210;DHT22;7188;56.070;12.698;2023-03-11T03:35:03;-0.50;1.00
14210;DHT22;7188;56.070;12.698;2023-03-11T03:37:32;-0.50;1.00
14210;DHT22;7188;56.070;12.698;2023-03-11T03:39:59;-0.40;1.00
14210;DHT22;7188;56.070;12.698;2023-03-11T03:42:26;-0.50;1.00
14210;DHT22;7188;56.070;12.698;2023-03-11T03:44:53;-0.50;1.00
14210;DHT22;7188;56.070;12.698;2023-03-11T03:47:19;-0.60;1.00
14210;DHT22;7188;56.070;12.698;2023-03-11T03:49:45;-0.60;1.00
14210;DHT22;7188;56.070;12.698;2023-03-11T03:52:10;-0.50;1.00
14210;DHT22;7188;56.070;12.698;2023-03-11T03:54:37;-0.50;1.00
14210;DHT22;7188;56.070;12.698;2023-03-11T03:57:03;-0.50;99.90
14210;DHT22;7188;56.070;12.698;2023-03-11T03:59:29;-0.60;99.90
14210;DHT22;7188;56.070;12.698;2023-03-11T04:01:55;-0.50;1.00
14210;DHT22;7188;56.070;12.698;2023-03-11T04:04:20;-0.50;1.00
14210;DHT22;7188;56.070;12.698;2023-03-11T04:06:46;-0.50;99.90
14210;DHT22;7188;56.070;12.698;2023-03-11T04:09:12;-0.40;99.90
14210;DHT22;7188;56.070;12.698;2023-03-11T04:11:37;-0.40;99.90
14210;DHT22;7188;56.070;12.698;2023-03-11T04:14:04;-0.30;99.90
14210;DHT22;7188;56.070;12.698;2023-03-11T04:16:30;-0.40;99.90
14210;DHT22;7188;56.070;12.698;2023-03-11T04:18:55;-0.40;99.90
14210;DHT22;7188;56.070;12.698;2023-03-11T04:21:21;-0.30;99.90
14210;DHT22;7188;56.070;12.698;2023-03-11T04:23:47;-0.30;99.90
14210;DHT22;7188;56.070;12.698;2023-03-11T04:26:12;-0.30;99.90
14210;DHT22;7188;56.070;12.698;2023-03-11T04:28:38;-0.30;99.90
14210;DHT22;7188;56.070;12.698;2023-03-11T04:31:04;-0.20;99.90
14210;DHT22;7188;56.070;12.698;2023-03-11T04:33:30;-0.20;99.90
14210;DHT22;7188;56.070;12.698;2023-03-11T04:35:55;-0.20;99.90
14210;DHT22;7188;56.070;12.698;2023-03-11T04:38:23;-0.20;99.90
14210;DHT22;7188;56.070;12.698;2023-03-11T04:40:49;-0.10;99.90
14210;DHT22;7188;56.070;12.698;2023-03-11T04:43:14;0.00;99.90
14210;DHT22;7188;56.070;12.698;2023-03-11T04:45:40;0.00;99.90
14210;DHT22;7188;56.070;12.698;2023-03-11T04:48:09;0.00;99.90
14210;DHT22;7188;56.070;12.698;2023-03-11T04:50:35;0.00;99.90
14210;DHT22;7188;56.070;12.698;2023-03-11T04:53:00;0.00;99.90
14210;DHT22;7188;56.070;12.698;2023-03-11T04:55:26;0.00;99.90
14210;DHT22;7188;56.070;12.698;2023-03-11T04:57:52;0.10;99.90
14210;DHT22;7188;56.070;12.698;2023-03-11T05:00:18;0.10;99.90
14210;DHT22;7188;56.070;12.698;2023-03-11T05:02:49;0.10;99.90
14210;DHT22;7188;56.070;12.698;2023-03-11T05:05:15;0.10;99.90
14210;DHT22;7188;56.070;12.698;2023-03-11T05:07:41;0.10;99.90
14210;DHT22;7188;56.070;12.698;2023-03-11T05:10:07;0.10;99.90
14210;DHT22;7188;56.070;12.698;2023-03-11T05:12:33;0.10;99.90
14210;DHT22;7188;56.070;12.698;2023-03-11T05:14:59;0.10;99.90
14210;DHT22;7188;56.070;12.698;2023-03-11T05:17:24;0.10;99.90
14210;DHT22;7188;56.070;12.698;2023-03-11T05:19:51;0.00;99.60
14210;DHT22;7188;56.070;12.698;2023-03-11T05:22:18;0.00;95.00
14210;DHT22;7188;56.070;12.698;2023-03-11T05:24:44;0.00;99.90
14210;DHT22;7188;56.070;12.698;2023-03-11T05:27:11;0.00;99.90
14210;DHT22;7188;56.070;12.698;2023-03-11T05:29:38;0.00;99.90
14210;DHT22;7188;56.070;12.698;2023-03-11T05:32:04;0.00;99.90
14210;DHT22;7188;56.070;12.698;2023-03-11T05:34:29;0.00;99.90
14210;DHT22;7188;56.070;12.698;2023-03-11T05:36:55;0.00;99.90
14210;DHT22;7188;56.070;12.698;2023-03-11T05:39:21;0.00;99.90
14210;DHT22;7188;56.070;12.698;2023-03-11T05:41:46;0.00;1.00
14210;DHT22;7188;56.070;12.698;2023-03-11T05:44:12;0.00;1.00
14210;DHT22;7188;56.070;12.698;2023-03-11T05:46:38;0.10;1.00
14210;DHT22;7188;56.070;12.698;2023-03-11T05:49:03;0.10;1.00
14210;DHT22;7188;56.070;12.698;2023-03-11T05:51:29;0.10;1.00
14210;DHT22;7188;56.070;12.698;2023-03-11T05:53:55;0.00;1.00
14210;DHT22;7188;56.070;12.698;2023-03-11T05:56:22;0.10;37.00
14210;DHT22;7188;56.070;12.698;2023-03-11T05:58:48;0.00;98.70
14210;DHT22;7188;56.070;12.698;2023-03-11T06:01:17;0.00;99.90
14210;DHT22;7188;56.070;12.698;2023-03-11T06:03:43;0.00;99.90
14210;DHT22;7188;56.070;12.698;2023-03-11T06:06:10;0.00;99.90
14210;DHT22;7188;56.070;12.698;2023-03-11T06:08:38;-0.10;1.00
14210;DHT22;7188;56.070;12.698;2023-03-11T06:11:09;-0.10;1.00
14210;DHT22;7188;56.070;12.698;2023-03-11T06:13:36;-0.10;1.00
14210;DHT22;7188;56.070;12.698;2023-03-11T06:16:02;-0.10;1.00
14210;DHT22;7188;56.070;12.698;2023-03-11T06:18:28;-0.10;1.00
14210;DHT22;7188;56.070;12.698;2023-03-11T06:20:57;-0.10;1.00
14210;DHT22;7188;56.070;12.698;2023-03-11T06:23:23;0.00;1.00
14210;DHT22;7188;56.070;12.698;2023-03-11T06:25:59;0.00;1.00
14210;DHT22;7188;56.070;12.698;2023-03-11T06:28:25;0.10;1.00
14210;DHT22;7188;56.070;12.698;2023-03-11T06:30:51;0.20;1.00
14210;DHT22;7188;56.070;12.698;2023-03-11T06:33:17;0.20;1.00
14210;DHT22;7188;56.070;12.698;2023-03-11T06:35:43;0.30;99.90
14210;DHT22;7188;56.070;12.698;2023-03-11T06:38:09;0.30;99.90
14210;DHT22;7188;56.070;12.698;2023-03-11T06:40:36;0.30;99.90
14210;DHT22;7188;56.070;12.698;2023-03-11T06:43:02;0.30;1.00
14210;DHT22;7188;56.070;12.698;2023-03-11T06:45:28;0.50;42.30
14210;DHT22;7188;56.070;12.698;2023-03-11T06:47:53;0.40;1.00
14210;DHT22;7188;56.070;12.698;2023-03-11T06:50:19;0.40;1.00
14210;DHT22;7188;56.070;12.698;2023-03-11T06:52:44;0.50;1.00
14210;DHT22;7188;56.070;12.698;2023-03-11T06:55:10;0.50;1.00
14210;DHT22;7188;56.070;12.698;2023-03-11T06:57:36;0.50;1.00
14210;DHT22;7188;56.070;12.698;2023-03-11T07:00:02;0.40;99.90
14210;DHT22;7188;56.070;12.698;2023-03-11T07:02:30;0.50;99.90
14210;DHT22;7188;56.070;12.698;2023-03-11T07:04:56;0.60;99.90
14210;DHT22;7188;56.070;12.698;2023-03-11T07:07:22;0.60;99.90
14210;DHT22;7188;56.070;12.698;2023-03-11T07:09:47;0.60;77.70
14210;DHT22;7188;56.070;12.698;2023-03-11T07:12:13;0.80;99.40
14210;DHT22;7188;56.070;12.698;2023-03-11T07:14:39;0.90;1.00
14210;DHT22;7188;56.070;12.698;2023-03-11T07:17:05;0.90;1.00
14210;DHT22;7188;56.070;12.698;2023-03-11T07:19:30;1.10;1.00
14210;DHT22;7188;56.070;12.698;2023-03-11T07:21:56;1.00;1.00
14210;DHT22;7188;56.070;12.698;2023-03-11T07:24:22;1.00;1.00
14210;DHT22;7188;56.070;12.698;2023-03-11T07:26:48;1.00;1.00
14210;DHT22;7188;56.070;12.698;2023-03-11T07:29:13;1.10;1.00
14210;DHT22;7188;56.070;12.698;2023-03-11T07:31:40;1.10;99.90
14210;DHT22;7188;56.070;12.698;2023-03-11T07:34:06;1.10;99.90
14210;DHT22;7188;56.070;12.698;2023-03-11T07:36:35;1.10;99.90
14210;DHT22;7188;56.070;12.698;2023-03-11T07:39:03;1.10;99.90
14210;DHT22;7188;56.070;12.698;2023-03-11T07:41:32;1.10;99.90
14210;DHT22;7188;56.070;12.698;2023-03-11T07:43:59;1.00;1.00
14210;DHT22;7188;56.070;12.698;2023-03-11T07:46:27;0.90;1.00
14210;DHT22;7188;56.070;12.698;2023-03-11T07:48:54;0.70;1.00
14210;DHT22;7188;56.070;12.698;2023-03-11T07:51:23;0.50;1.00
14210;DHT22;7188;56.070;12.698;2023-03-11T07:53:50;0.40;99.90
14210;DHT22;7188;56.070;12.698;2023-03-11T07:56:16;0.30;99.90
14210;DHT22;7188;56.070;12.698;2023-03-11T07:58:42;0.20;1.00
14210;DHT22;7188;56.070;12.698;2023-03-11T08:01:17;0.20;99.90
14210;DHT22;7188;56.070;12.698;2023-03-11T08:03:45;0.20;1.00
14210;DHT22;7188;56.070;12.698;2023-03-11T08:08:42;0.40;99.90
14210;DHT22;7188;56.070;12.698;2023-03-11T08:11:08;0.70;13.30
14210;DHT22;7188;56.070;12.698;2023-03-11T08:13:35;0.80;1.00
14210;DHT22;7188;56.070;12.698;2023-03-11T08:16:05;0.80;1.00
14210;DHT22;7188;56.070;12.698;2023-03-11T08:18:32;0.60;99.90
14210;DHT22;7188;56.070;12.698;2023-03-11T08:21:04;0.60;99.90
14210;DHT22;7188;56.070;12.698;2023-03-11T08:23:29;0.50;56.40
14210;DHT22;7188;56.070;12.698;2023-03-11T08:25:56;0.30;99.90
14210;DHT22;7188;56.070;12.698;2023-03-11T08:28:22;0.40;1.00
14210;DHT22;7188;56.070;12.698;2023-03-11T08:30:48;0.60;1.00
14210;DHT22;7188;56.070;12.698;2023-03-11T08:33:13;0.80;1.00
14210;DHT22;7188;56.070;12.698;2023-03-11T08:35:39;0.90;99.90
14210;DHT22;7188;56.070;12.698;2023-03-11T08:38:05;1.00;1.00
14210;DHT22;7188;56.070;12.698;2023-03-11T08:40:30;1.30;1.00
14210;DHT22;7188;56.070;12.698;2023-03-11T08:42:59;1.40;1.00
14210;DHT22;7188;56.070;12.698;2023-03-11T08:45:26;1.60;99.90
14210;DHT22;7188;56.070;12.698;2023-03-11T08:47:52;1.60;1.00
14210;DHT22;7188;56.070;12.698;2023-03-11T08:50:18;1.50;1.00
14210;DHT22;7188;56.070;12.698;2023-03-11T08:52:44;1.50;1.00
14210;DHT22;7188;56.070;12.698;2023-03-11T08:55:15;1.40;99.90
14210;DHT22;7188;56.070;12.698;2023-03-11T08:57:43;1.30;99.90
14210;DHT22;7188;56.070;12.698;2023-03-11T09:00:11;1.20;99.90
14210;DHT22;7188;56.070;12.698;2023-03-11T09:02:37;1.20;99.90
14210;DHT22;7188;56.070;12.698;2023-03-11T09:05:03;1.30;99.90
14210;DHT22;7188;56.070;12.698;2023-03-11T09:07:29;1.40;99.90
14210;DHT22;7188;56.070;12.698;2023-03-11T09:09:55;1.60;99.90
14210;DHT22;7188;56.070;12.698;2023-03-11T09:12:21;1.70;1.00
14210;DHT22;7188;56.070;12.698;2023-03-11T09:14:47;1.70;99.90
14210;DHT22;7188;56.070;12.698;2023-03-11T09:17:13;1.80;1.00
14210;DHT22;7188;56.070;12.698;2023-03-11T09:19:39;1.70;1.00
14210;DHT22;7188;56.070;12.698;2023-03-11T09:22:05;1.90;1.00
14210;DHT22;7188;56.070;12.698;2023-03-11T09:24:35;1.90;1.00
14210;DHT22;7188;56.070;12.698;2023-03-11T09:27:01;2.00;1.00
14210;DHT22;7188;56.070;12.698;2023-03-11T09:29:27;2.10;1.00
14210;DHT22;7188;56.070;12.698;2023-03-11T09:31:54;2.00;1.00
14210;DHT22;7188;56.070;12.698;2023-03-11T09:34:19;2.00;1.00
14210;DHT22;7188;56.070;12.698;2023-03-11T09:36:45;2.20;1.00
14210;DHT22;7188;56.070;12.698;2023-03-11T09:39:11;2.30;99.90
14210;DHT22;7188;56.070;12.698;2023-03-11T09:55:04;1.90;95.90
14210;DHT22;7188;56.070;12.698;2023-03-11T09:57:33;1.90;73.50
14210;DHT22;7188;56.070;12.698;2023-03-11T10:00:04;2.10;30.40
14210;DHT22;7188;56.070;12.698;2023-03-11T10:02:30;2.20;1.00
14210;DHT22;7188;56.070;12.698;2023-03-11T10:05:05;2.30;1.00
14210;DHT22;7188;56.070;12.698;2023-03-11T10:07:39;2.30;1.00
14210;DHT22;7188;56.070;12.698;2023-03-11T10:10:08;2.20;1.00
14210;DHT22;7188;56.070;12.698;2023-03-11T10:12:44;2.10;1.00
14210;DHT22;7188;56.070;12.698;2023-03-11T10:34:33;2.60;1.00
14210;DHT22;7188;56.070;12.698;2023-03-11T10:37:03;2.30;1.00
14210;DHT22;7188;56.070;12.698;2023-03-11T10:39:32;2.20;1.00
14210;DHT22;7188;56.070;12.698;2023-03-11T10:42:03;2.30;1.00
14210;DHT22;7188;56.070;12.698;2023-03-11T10:44:37;2.50;1.00
14210;DHT22;7188;56.070;12.698;2023-03-11T10:47:04;2.40;1.00
14210;DHT22;7188;56.070;12.698;2023-03-11T10:49:30;2.40;1.00
14210;DHT22;7188;56.070;12.698;2023-03-11T10:51:56;2.20;1.00
14210;DHT22;7188;56.070;12.698;2023-03-11T10:54:34;2.10;1.00
14210;DHT22;7188;56.070;12.698;2023-03-11T10:57:22;1.90;1.00
14210;DHT22;7188;56.070;12.698;2023-03-11T11:00:06;2.00;1.00
14210;DHT22;7188;56.070;12.698;2023-03-11T11:02:53;2.10;1.00
14210;DHT22;7188;56.070;12.698;2023-03-11T11:05:32;2.10;1.00
14210;DHT22;7188;56.070;12.698;2023-03-11T11:08:07;2.10;1.00
14210;DHT22;7188;56.070;12.698;2023-03-11T11:10:36;2.20;1.00
14210;DHT22;7188;56.070;12.698;2023-03-11T11:13:16;2.20;1.00
14210;DHT22;7188;56.070;12.698;2023-03-11T11:16:00;2.40;1.00
14210;DHT22;7188;56.070;12.698;2023-03-11T11:18:41;2.30;1.00
14210;DHT22;7188;56.070;12.698;2023-03-11T11:27:15;2.10;1.00
14210;DHT22;7188;56.070;12.698;2023-03-11T11:29:42;2.20;1.00
14210;DHT22;7188;56.070;12.698;2023-03-11T11:32:25;2.20;1.00
14210;DHT22;7188;56.070;12.698;2023-03-11T11:35:05;2.20;1.00
14210;DHT22;7188;56.070;12.698;2023-03-11T11:37:34;2.30;1.00
14210;DHT22;7188;56.070;12.698;2023-03-11T11:40:15;2.40;1.00
14210;DHT22;7188;56.070;12.698;2023-03-11T11:42:46;2.40;1.00
14210;DHT22;7188;56.070;12.698;2023-03-11T11:45:20;2.40;1.00
14210;DHT22;7188;56.070;12.698;2023-03-11T11:47:53;2.40;1.00
14210;DHT22;7188;56.070;12.698;2023-03-11T11:50:39;2.40;1.00
14210;DHT22;7188;56.070;12.698;2023-03-11T11:53:10;2.50;1.00
14210;DHT22;7188;56.070;12.698;2023-03-11T11:55:42;2.40;1.00
14210;DHT22;7188;56.070;12.698;2023-03-11T11:58:11;2.50;1.00
14210;DHT22;7188;56.070;12.698;2023-03-11T12:09:26;2.80;1.00
14210;DHT22;7188;56.070;12.698;2023-03-11T12:14:56;2.90;1.00
14210;DHT22;7188;56.070;12.698;2023-03-11T12:17:25;2.90;1.00
14210;DHT22;7188;56.070;12.698;2023-03-11T12:19:57;2.80;1.00
14210;DHT22;7188;56.070;12.698;2023-03-11T12:22:39;2.80;1.00
14210;DHT22;7188;56.070;12.698;2023-03-11T12:25:59;2.80;1.00
14210;DHT22;7188;56.070;12.698;2023-03-11T12:28:22;2.80;1.00
14210;DHT22;7188;56.070;12.698;2023-03-11T12:30:59;2.70;1.00
14210;DHT22;7188;56.070;12.698;2023-03-11T12:33:44;2.90;1.00
14210;DHT22;7188;56.070;12.698;2023-03-11T12:36:32;2.70;1.00
14210;DHT22;7188;56.070;12.698;2023-03-11T12:39:00;2.70;1.00
14210;DHT22;7188;56.070;12.698;2023-03-11T12:44:01;2.80;1.00
14210;DHT22;7188;56.070;12.698;2023-03-11T12:46:58;2.80;1.00
14210;DHT22;7188;56.070;12.698;2023-03-11T12:49:27;2.80;1.00
14210;DHT22;7188;56.070;12.698;2023-03-11T12:52:02;2.80;1.00
14210;DHT22;7188;56.070;12.698;2023-03-11T12:55:33;2.90;1.00
14210;DHT22;7188;56.070;12.698;2023-03-11T12:57:57;3.00;1.00
14210;DHT22;7188;56.070;12.698;2023-03-11T13:00:48;3.00;1.00
14210;DHT22;7188;56.070;12.698;2023-03-11T13:08:56;2.90;1.00
14210;DHT22;7188;56.070;12.698;2023-03-11T13:11:42;3.00;1.00
14210;DHT22;7188;56.070;12.698;2023-03-11T13:14:33;3.10;1.00
14210;DHT22;7188;56.070;12.698;2023-03-11T13:17:24;3.20;1.00
14210;DHT22;7188;56.070;12.698;2023-03-11T13:19:53;3.40;1.00
14210;DHT22;7188;56.070;12.698;2023-03-11T13:22:43;3.30;1.00
14210;DHT22;7188;56.070;12.698;2023-03-11T13:25:29;3.40;1.00
14210;DHT22;7188;56.070;12.698;2023-03-11T13:28:18;3.40;1.00
14210;DHT22;7188;56.070;12.698;2023-03-11T13:36:35;3.50;1.00
14210;DHT22;7188;56.070;12.698;2023-03-11T13:39:22;3.60;1.00
14210;DHT22;7188;56.070;12.698;2023-03-11T13:41:49;3.70;1.00
14210;DHT22;7188;56.070;12.698;2023-03-11T13:44:26;3.80;1.00
14210;DHT22;7188;56.070;12.698;2023-03-11T13:47:08;3.90;1.00
14210;DHT22;7188;56.070;12.698;2023-03-11T13:50:05;4.00;1.00
14210;DHT22;7188;56.070;12.698;2023-03-11T13:52:31;4.00;1.00
14210;DHT22;7188;56.070;12.698;2023-03-11T13:55:36;4.00;1.00
14210;DHT22;7188;56.070;12.698;2023-03-11T13:57:56;3.80;1.00
14210;DHT22;7188;56.070;12.698;2023-03-11T14:00:24;3.70;1.00
14210;DHT22;7188;56.070;12.698;2023-03-11T14:02:57;3.70;1.00
14210;DHT22;7188;56.070;12.698;2023-03-11T14:05:45;3.70;1.00
14210;DHT22;7188;56.070;12.698;2023-03-11T14:10:38;3.80;1.00
14210;DHT22;7188;56.070;12.698;2023-03-11T14:13:17;3.90;1.00
14210;DHT22;7188;56.070;12.698;2023-03-11T14:16:08;3.90;1.00
14210;DHT22;7188;56.070;12.698;2023-03-11T14:18:45;3.90;1.00
14210;DHT22;7188;56.070;12.698;2023-03-11T14:21:21;3.90;1.00
14210;DHT22;7188;56.070;12.698;2023-03-11T14:23:49;3.90;1.00
14210;DHT22;7188;56.070;12.698;2023-03-11T14:26:22;3.90;1.00
14210;DHT22;7188;56.070;12.698;2023-03-11T14:28:50;4.00;1.00
14210;DHT22;7188;56.070;12.698;2023-03-11T14:31:33;4.00;1.00
14210;DHT22;7188;56.070;12.698;2023-03-11T14:36:49;3.90;1.00
14210;DHT22;7188;56.070;12.698;2023-03-11T14:42:15;3.80;1.00
14210;DHT22;7188;56.070;12.698;2023-03-11T14:44:48;3.80;1.00
14210;DHT22;7188;56.070;12.698;2023-03-11T14:47:32;3.80;1.00
14210;DHT22;7188;56.070;12.698;2023-03-11T14:50:02;3.80;1.00
14210;DHT22;7188;56.070;12.698;2023-03-11T14:52:37;3.70;1.00
14210;DHT22;7188;56.070;12.698;2023-03-11T14:55:19;3.70;1.00
14210;DHT22;7188;56.070;12.698;2023-03-11T14:57:46;3.70;1.00
14210;DHT22;7188;56.070;12.698;2023-03-11T15:00:20;3.60;1.00
14210;DHT22;7188;56.070;12.698;2023-03-11T15:03:25;3.60;1.00
14210;DHT22;7188;56.070;12.698;2023-03-11T15:06:17;3.60;1.00
14210;DHT22;7188;56.070;12.698;2023-03-11T15:08:49;3.50;1.00
14210;DHT22;7188;56.070;12.698;2023-03-11T15:11:18;3.60;1.00
14210;DHT22;7188;56.070;12.698;2023-03-11T15:13:45;3.60;1.00
14210;DHT22;7188;56.070;12.698;2023-03-11T15:16:35;3.80;1.00
14210;DHT22;7188;56.070;12.698;2023-03-11T15:21:46;3.90;1.00
14210;DHT22;7188;56.070;12.698;2023-03-11T15:24:18;4.00;1.00
14210;DHT22;7188;56.070;12.698;2023-03-11T15:29:18;3.90;1.00
14210;DHT22;7188;56.070;12.698;2023-03-11T15:31:44;3.90;1.00
14210;DHT22;7188;56.070;12.698;2023-03-11T15:37:18;3.70;1.00
14210;DHT22;7188;56.070;12.698;2023-03-11T15:39:47;3.70;1.00
14210;DHT22;7188;56.070;12.698;2023-03-11T15:42:24;3.70;1.00
14210;DHT22;7188;56.070;12.698;2023-03-11T15:47:19;3.60;14.90
14210;DHT22;7188;56.070;12.698;2023-03-11T15:49:46;3.60;99.90
14210;DHT22;7188;56.070;12.698;2023-03-11T15:52:12;3.50;99.90
14210;DHT22;7188;56.070;12.698;2023-03-11T15:54:38;3.30;99.90
14210;DHT22;7188;56.070;12.698;2023-03-11T15:57:19;3.30;1.00
14210;DHT22;7188;56.070;12.698;2023-03-11T15:59:47;3.20;1.00
14210;DHT22;7188;56.070;12.698;2023-03-11T16:02:31;3.10;1.00
14210;DHT22;7188;56.070;12.698;2023-03-11T16:04:58;3.10;99.90
14210;DHT22;7188;56.070;12.698;2023-03-11T16:07:24;3.00;99.90
14210;DHT22;7188;56.070;12.698;2023-03-11T16:09:49;2.90;99.90
14210;DHT22;7188;56.070;12.698;2023-03-11T16:12:21;2.90;1.00
14210;DHT22;7188;56.070;12.698;2023-03-11T16:14:47;2.90;1.00
14210;DHT22;7188;56.070;12.698;2023-03-11T16:17:13;2.80;1.00
14210;DHT22;7188;56.070;12.698;2023-03-11T16:19:43;2.70;1.00
14210;DHT22;7188;56.070;12.698;2023-03-11T16:22:16;2.80;99.90
14210;DHT22;7188;56.070;12.698;2023-03-11T16:24:44;2.70;99.90
14210;DHT22;7188;56.070;12.698;2023-03-11T16:27:13;2.80;99.90
14210;DHT22;7188;56.070;12.698;2023-03-11T16:29:43;2.80;99.90
14210;DHT22;7188;56.070;12.698;2023-03-11T16:32:11;2.70;99.90
14210;DHT22;7188;56.070;12.698;2023-03-11T16:34:38;2.70;99.90
14210;DHT22;7188;56.070;12.698;2023-03-11T16:37:05;2.70;99.90
14210;DHT22;7188;56.070;12.698;2023-03-11T16:39:31;2.60;99.90
14210;DHT22;7188;56.070;12.698;2023-03-11T16:41:57;2.50;99.90
14210;DHT22;7188;56.070;12.698;2023-03-11T16:44:22;2.50;1.00
14210;DHT22;7188;56.070;12.698;2023-03-11T16:46:48;2.40;1.00
14210;DHT22;7188;56.070;12.698;2023-03-11T16:49:15;2.60;1.00
14210;DHT22;7188;56.070;12.698;2023-03-11T16:51:40;2.70;26.40
14210;DHT22;7188;56.070;12.698;2023-03-11T16:54:06;2.60;1.00
14210;DHT22;7188;56.070;12.698;2023-03-11T16:56:33;2.60;1.00
14210;DHT22;7188;56.070;12.698;2023-03-11T16:58:59;2.60;94.70
14210;DHT22;7188;56.070;12.698;2023-03-11T17:01:25;2.60;1.00
14210;DHT22;7188;56.070;12.698;2023-03-11T17:03:51;2.60;96.10
14210;DHT22;7188;56.070;12.698;2023-03-11T17:06:18;2.50;93.40
14210;DHT22;7188;56.070;12.698;2023-03-11T17:08:43;2.40;98.80
14210;DHT22;7188;56.070;12.698;2023-03-11T17:11:20;2.30;99.90
14210;DHT22;7188;56.070;12.698;2023-03-11T17:13:46;2.20;99.90
14210;DHT22;7188;56.070;12.698;2023-03-11T17:16:12;2.20;99.90
14210;DHT22;7188;56.070;12.698;2023-03-11T17:18:38;2.20;1.00
14210;DHT22;7188;56.070;12.698;2023-03-11T17:21:13;2.10;1.00
14210;DHT22;7188;56.070;12.698;2023-03-11T17:23:40;2.10;1.00
14210;DHT22;7188;56.070;12.698;2023-03-11T17:26:08;2.10;1.00
14210;DHT22;7188;56.070;12.698;2023-03-11T17:28:35;2.10;1.00
14210;DHT22;7188;56.070;12.698;2023-03-11T17:31:01;2.00;99.90
14210;DHT22;7188;56.070;12.698;2023-03-11T17:33:26;2.10;99.90
14210;DHT22;7188;56.070;12.698;2023-03-11T17:36:03;2.00;99.90
14210;DHT22;7188;56.070;12.698;2023-03-11T17:38:29;2.10;99.90